sensor_id;sensor_type;location;lat;lon;timestamp;temperature;humidity
69208;SHT31;70114;47.690;8.898;2023-07-20T00:00:33;22.77;49.00
69208;SHT31;70114;47.690;8.898;2023-07-20T00:03:12;22.84;49.44
69208;SHT31;70114;47.690;8.898;2023-07-20T00:05:42;22.88;48.78
69208;SHT31;70114;47.690;8.898;2023-07-20T00:08:08;22.90;49.05
69208;SHT31;70114;47.690;8.898;2023-07-20T00:10:33;22.91;48.76
69208;SHT31;70114;47.690;8.898;2023-07-20T00:12:59;22.88;48.60
69208;SHT31;70114;47.690;8.898;2023-07-20T00:15:24;22.94;48.36
69208;SHT31;70114;47.690;8.898;2023-07-20T00:17:49;22.97;48.52
69208;SHT31;70114;47.690;8.898;2023-07-20T00:20:15;22.83;48.92
69208;SHT31;70114;47.690;8.898;2023-07-20T00:22:40;22.81;49.46
69208;SHT31;70114;47.690;8.898;2023-07-20T00:25:05;22.87;48.26
69208;SHT31;70114;47.690;8.898;2023-07-20T00:27:31;22.91;48.30
69208;SHT31;70114;47.690;8.898;2023-07-20T00:29:57;22.91;48.03
69208;SHT31;70114;47.690;8.898;2023-07-20T00:32:22;22.90;49.63
69208;SHT31;70114;47.690;8.898;2023-07-20T00:34:47;22.91;48.50
69208;SHT31;70114;47.690;8.898;2023-07-20T00:37:13;22.90;49.63
69208;SHT31;70114;47.690;8.898;2023-07-20T00:39:38;22.66;50.77
69208;SHT31;70114;47.690;8.898;2023-07-20T00:42:04;22.78;49.16
69208;SHT31;70114;47.690;8.898;2023-07-20T00:44:29;22.75;49.01
69208;SHT31;70114;47.690;8.898;2023-07-20T00:46:55;22.68;49.24
69208;SHT31;70114;47.690;8.898;2023-07-20T00:49:20;22.70;49.10
69208;SHT31;70114;47.690;8.898;2023-07-20T00:51:48;22.73;49.33
69208;SHT31;70114;47.690;8.898;2023-07-20T00:54:14;22.71;48.67
69208;SHT31;70114;47.690;8.898;2023-07-20T00:56:40;22.73;49.60
69208;SHT31;70114;47.690;8.898;2023-07-20T00:59:06;22.75;49.90
69208;SHT31;70114;47.690;8.898;2023-07-20T01:01:31;22.77;48.98
69208;SHT31;70114;47.690;8.898;2023-07-20T01:03:57;22.74;48.10
69208;SHT31;70114;47.690;8.898;2023-07-20T01:09:52;22.68;48.41
69208;SHT31;70114;47.690;8.898;2023-07-20T01:12:27;22.64;48.32
69208;SHT31;70114;47.690;8.898;2023-07-20T01:14:55;22.66;48.76
69208;SHT31;70114;47.690;8.898;2023-07-20T01:17:20;22.66;48.88
69208;SHT31;70114;47.690;8.898;2023-07-20T01:19:45;22.59;49.09
69208;SHT31;70114;47.690;8.898;2023-07-20T01:22:38;22.54;49.00
69208;SHT31;70114;47.690;8.898;2023-07-20T01:30:47;22.50;49.72
69208;SHT31;70114;47.690;8.898;2023-07-20T01:33:16;22.45;50.53
69208;SHT31;70114;47.690;8.898;2023-07-20T01:35:43;22.40;50.50
69208;SHT31;70114;47.690;8.898;2023-07-20T01:38:11;22.37;49.98
69208;SHT31;70114;47.690;8.898;2023-07-20T01:40:38;22.40;50.54
69208;SHT31;70114;47.690;8.898;2023-07-20T01:43:04;22.32;50.47
69208;SHT31;70114;47.690;8.898;2023-07-20T01:45:29;22.36;50.25
69208;SHT31;70114;47.690;8.898;2023-07-20T01:47:55;22.36;50.27
69208;SHT31;70114;47.690;8.898;2023-07-20T01:50:20;22.36;50.19
69208;SHT31;70114;47.690;8.898;2023-07-20T01:52:45;22.32;50.19
69208;SHT31;70114;47.690;8.898;2023-07-20T01:55:11;22.20;50.75
69208;SHT31;70114;47.690;8.898;2023-07-20T01:57:36;22.13;50.44
69208;SHT31;70114;47.690;8.898;2023-07-20T02:00:02;22.15;50.21
69208;SHT31;70114;47.690;8.898;2023-07-20T02:02:27;22.15;50.42
69208;SHT31;70114;47.690;8.898;2023-07-20T02:04:53;22.15;50.71
69208;SHT31;70114;47.690;8.898;2023-07-20T02:07:19;22.06;50.38
69208;SHT31;70114;47.690;8.898;2023-07-20T02:09:44;21.99;50.58
69208;SHT31;70114;47.690;8.898;2023-07-20T02:12:09;21.94;50.93
69208;SHT31;70114;47.690;8.898;2023-07-20T02:14:35;21.78;51.76
69208;SHT31;70114;47.690;8.898;2023-07-20T02:17:00;21.68;51.32
69208;SHT31;70114;47.690;8.898;2023-07-20T02:19:26;21.73;51.13
69208;SHT31;70114;47.690;8.898;2023-07-20T02:21:52;21.62;50.91
69208;SHT31;70114;47.690;8.898;2023-07-20T02:24:18;21.68;51.03
69208;SHT31;70114;47.690;8.898;2023-07-20T02:26:43;21.65;51.10
69208;SHT31;70114;47.690;8.898;2023-07-20T02:29:09;21.14;52.31
69208;SHT31;70114;47.690;8.898;2023-07-20T02:31:37;21.22;51.62
69208;SHT31;70114;47.690;8.898;2023-07-20T02:34:02;20.89;51.67
69208;SHT31;70114;47.690;8.898;2023-07-20T02:36:28;20.84;51.66
69208;SHT31;70114;47.690;8.898;2023-07-20T02:38:53;21.06;51.55
69208;SHT31;70114;47.690;8.898;2023-07-20T02:41:19;21.10;51.61
69208;SHT31;70114;47.690;8.898;2023-07-20T02:43:45;21.00;51.88
69208;SHT31;70114;47.690;8.898;2023-07-20T02:46:10;20.88;52.37
69208;SHT31;70114;47.690;8.898;2023-07-20T02:48:36;20.89;52.07
69208;SHT31;70114;47.690;8.898;2023-07-20T02:51:01;20.64;52.03
69208;SHT31;70114;47.690;8.898;2023-07-20T02:53:27;20.43;52.61
69208;SHT31;70114;47.690;8.898;2023-07-20T02:55:52;20.31;53.44
69208;SHT31;70114;47.690;8.898;2023-07-20T02:58:17;20.58;52.73
69208;SHT31;70114;47.690;8.898;2023-07-20T03:00:43;20.58;53.36
69208;SHT31;70114;47.690;8.898;2023-07-20T03:03:09;20.74;52.68
69208;SHT31;70114;47.690;8.898;2023-07-20T03:05:35;20.74;52.54
69208;SHT31;70114;47.690;8.898;2023-07-20T03:08:03;20.65;53.61
69208;SHT31;70114;47.690;8.898;2023-07-20T03:10:28;20.75;52.88
69208;SHT31;70114;47.690;8.898;2023-07-20T03:12:54;20.71;52.71
69208;SHT31;70114;47.690;8.898;2023-07-20T03:15:19;20.78;52.07
69208;SHT31;70114;47.690;8.898;2023-07-20T03:17:44;20.82;52.35
69208;SHT31;70114;47.690;8.898;2023-07-20T03:20:11;20.72;52.70
69208;SHT31;70114;47.690;8.898;2023-07-20T03:22:38;20.74;52.31
69208;SHT31;70114;47.690;8.898;2023-07-20T03:25:03;20.63;53.03
69208;SHT31;70114;47.690;8.898;2023-07-20T03:27:29;20.61;53.07
69208;SHT31;70114;47.690;8.898;2023-07-20T03:29:55;20.49;53.51
69208;SHT31;70114;47.690;8.898;2023-07-20T03:32:20;20.28;53.79
69208;SHT31;70114;47.690;8.898;2023-07-20T03:34:45;20.12;53.84
69208;SHT31;70114;47.690;8.898;2023-07-20T03:37:12;20.12;54.62
69208;SHT31;70114;47.690;8.898;2023-07-20T03:39:37;20.01;54.71
69208;SHT31;70114;47.690;8.898;2023-07-20T03:42:03;20.12;54.53
69208;SHT31;70114;47.690;8.898;2023-07-20T03:44:28;19.82;55.65
69208;SHT31;70114;47.690;8.898;2023-07-20T03:46:54;19.94;55.43
69208;SHT31;70114;47.690;8.898;2023-07-20T03:49:19;19.75;55.85
69208;SHT31;70114;47.690;8.898;2023-07-20T03:51:45;19.80;56.38
69208;SHT31;70114;47.690;8.898;2023-07-20T03:54:10;19.87;55.99
69208;SHT31;70114;47.690;8.898;2023-07-20T03:56:36;19.87;56.50
69208;SHT31;70114;47.690;8.898;2023-07-20T03:59:01;19.93;56.50
69208;SHT31;70114;47.690;8.898;2023-07-20T04:01:27;19.85;57.16
69208;SHT31;70114;47.690;8.898;2023-07-20T04:03:52;19.87;56.77
69208;SHT31;70114;47.690;8.898;2023-07-20T04:06:17;19.89;57.13
69208;SHT31;70114;47.690;8.898;2023-07-20T04:08:44;19.78;58.06
69208;SHT31;70114;47.690;8.898;2023-07-20T04:11:09;19.85;57.71
69208;SHT31;70114;47.690;8.898;2023-07-20T04:13:35;19.87;58.16
69208;SHT31;70114;47.690;8.898;2023-07-20T04:16:00;19.90;57.46
69208;SHT31;70114;47.690;8.898;2023-07-20T04:18:26;19.89;58.47
69208;SHT31;70114;47.690;8.898;2023-07-20T04:20:51;20.03;58.05
69208;SHT31;70114;47.690;8.898;2023-07-20T04:23:16;20.09;58.07
69208;SHT31;70114;47.690;8.898;2023-07-20T04:25:42;19.99;57.87
69208;SHT31;70114;47.690;8.898;2023-07-20T04:28:07;19.85;58.13
69208;SHT31;70114;47.690;8.898;2023-07-20T04:30:36;19.94;57.86
69208;SHT31;70114;47.690;8.898;2023-07-20T04:33:03;20.03;57.76
69208;SHT31;70114;47.690;8.898;2023-07-20T04:35:46;20.01;57.78
69208;SHT31;70114;47.690;8.898;2023-07-20T04:38:12;20.09;57.42
69208;SHT31;70114;47.690;8.898;2023-07-20T04:40:37;20.14;57.84
69208;SHT31;70114;47.690;8.898;2023-07-20T04:43:02;20.18;58.17
69208;SHT31;70114;47.690;8.898;2023-07-20T04:45:28;20.24;57.76
69208;SHT31;70114;47.690;8.898;2023-07-20T04:47:53;20.30;57.19
69208;SHT31;70114;47.690;8.898;2023-07-20T04:50:19;20.33;57.49
69208;SHT31;70114;47.690;8.898;2023-07-20T04:52:44;20.37;58.01
69208;SHT31;70114;47.690;8.898;2023-07-20T04:55:11;20.40;58.55
69208;SHT31;70114;47.690;8.898;2023-07-20T04:57:36;20.45;58.54
69208;SHT31;70114;47.690;8.898;2023-07-20T05:00:02;20.52;57.79
69208;SHT31;70114;47.690;8.898;2023-07-20T05:02:28;20.57;57.98
69208;SHT31;70114;47.690;8.898;2023-07-20T05:04:54;20.63;57.93
69208;SHT31;70114;47.690;8.898;2023-07-20T05:07:19;20.65;58.06
69208;SHT31;70114;47.690;8.898;2023-07-20T05:09:45;20.68;58.13
69208;SHT31;70114;47.690;8.898;2023-07-20T05:12:10;20.74;57.96
69208;SHT31;70114;47.690;8.898;2023-07-20T05:14:37;20.74;57.85
69208;SHT31;70114;47.690;8.898;2023-07-20T05:17:03;20.81;57.84
69208;SHT31;70114;47.690;8.898;2023-07-20T05:19:28;20.88;57.45
69208;SHT31;70114;47.690;8.898;2023-07-20T05:21:54;20.91;57.58
69208;SHT31;70114;47.690;8.898;2023-07-20T05:24:19;20.93;57.24
69208;SHT31;70114;47.690;8.898;2023-07-20T05:26:44;20.99;56.53
69208;SHT31;70114;47.690;8.898;2023-07-20T05:29:10;21.02;56.67
69208;SHT31;70114;47.690;8.898;2023-07-20T05:31:35;21.07;56.09
69208;SHT31;70114;47.690;8.898;2023-07-20T05:34:00;21.14;56.06
69208;SHT31;70114;47.690;8.898;2023-07-20T05:36:26;21.16;56.48
69208;SHT31;70114;47.690;8.898;2023-07-20T05:38:52;21.23;55.17
69208;SHT31;70114;47.690;8.898;2023-07-20T05:41:17;21.30;55.62
69208;SHT31;70114;47.690;8.898;2023-07-20T05:43:42;21.36;54.81
69208;SHT31;70114;47.690;8.898;2023-07-20T05:46:08;21.43;55.02
69208;SHT31;70114;47.690;8.898;2023-07-20T05:48:34;21.44;55.21
69208;SHT31;70114;47.690;8.898;2023-07-20T05:51:00;21.50;54.05
69208;SHT31;70114;47.690;8.898;2023-07-20T05:53:26;21.57;54.01
69208;SHT31;70114;47.690;8.898;2023-07-20T05:55:52;21.62;53.16
69208;SHT31;70114;47.690;8.898;2023-07-20T05:58:18;21.68;53.00
69208;SHT31;70114;47.690;8.898;2023-07-20T06:00:44;21.22;52.12
69208;SHT31;70114;47.690;8.898;2023-07-20T06:03:09;21.03;50.89
69208;SHT31;70114;47.690;8.898;2023-07-20T06:05:36;21.44;50.92
69208;SHT31;70114;47.690;8.898;2023-07-20T06:08:01;21.55;49.61
69208;SHT31;70114;47.690;8.898;2023-07-20T06:10:27;21.39;51.64
69208;SHT31;70114;47.690;8.898;2023-07-20T06:12:52;21.54;49.46
69208;SHT31;70114;47.690;8.898;2023-07-20T06:15:32;21.37;50.42
69208;SHT31;70114;47.690;8.898;2023-07-20T06:17:57;21.53;49.86
69208;SHT31;70114;47.690;8.898;2023-07-20T06:20:23;21.29;50.97
69208;SHT31;70114;47.690;8.898;2023-07-20T06:22:49;21.20;52.01
69208;SHT31;70114;47.690;8.898;2023-07-20T06:25:14;21.43;51.90
69208;SHT31;70114;47.690;8.898;2023-07-20T06:27:40;21.67;51.45
69208;SHT31;70114;47.690;8.898;2023-07-20T06:30:06;21.87;50.80
69208;SHT31;70114;47.690;8.898;2023-07-20T06:32:31;21.58;52.13
69208;SHT31;70114;47.690;8.898;2023-07-20T06:34:57;21.53;50.96
69208;SHT31;70114;47.690;8.898;2023-07-20T06:37:23;21.87;51.71
69208;SHT31;70114;47.690;8.898;2023-07-20T06:39:49;21.95;51.08
69208;SHT31;70114;47.690;8.898;2023-07-20T06:42:14;22.13;50.92
69208;SHT31;70114;47.690;8.898;2023-07-20T06:44:39;22.02;51.33
69208;SHT31;70114;47.690;8.898;2023-07-20T06:47:05;22.09;49.28
69208;SHT31;70114;47.690;8.898;2023-07-20T06:49:30;22.30;50.01
69208;SHT31;70114;47.690;8.898;2023-07-20T06:51:56;22.36;49.59
69208;SHT31;70114;47.690;8.898;2023-07-20T06:54:22;22.25;49.54
69208;SHT31;70114;47.690;8.898;2023-07-20T06:56:47;22.37;49.74
69208;SHT31;70114;47.690;8.898;2023-07-20T06:59:13;22.16;47.93
69208;SHT31;70114;47.690;8.898;2023-07-20T07:01:38;22.40;47.57
69208;SHT31;70114;47.690;8.898;2023-07-20T07:04:04;22.32;48.37
69208;SHT31;70114;47.690;8.898;2023-07-20T07:06:30;22.59;48.28
69208;SHT31;70114;47.690;8.898;2023-07-20T07:08:56;22.77;46.94
69208;SHT31;70114;47.690;8.898;2023-07-20T07:11:21;22.53;49.48
69208;SHT31;70114;47.690;8.898;2023-07-20T07:13:47;22.86;45.87
69208;SHT31;70114;47.690;8.898;2023-07-20T07:16:15;22.90;45.49
69208;SHT31;70114;47.690;8.898;2023-07-20T07:18:44;22.35;45.77
69208;SHT31;70114;47.690;8.898;2023-07-20T07:21:10;22.91;45.33
69208;SHT31;70114;47.690;8.898;2023-07-20T07:23:35;23.16;43.96
69208;SHT31;70114;47.690;8.898;2023-07-20T07:26:00;23.32;43.49
69208;SHT31;70114;47.690;8.898;2023-07-20T07:28:28;22.81;44.12
69208;SHT31;70114;47.690;8.898;2023-07-20T07:30:55;22.86;45.49
69208;SHT31;70114;47.690;8.898;2023-07-20T07:33:22;23.23;44.52
69208;SHT31;70114;47.690;8.898;2023-07-20T07:35:47;23.29;44.33
69208;SHT31;70114;47.690;8.898;2023-07-20T07:38:12;23.38;44.71
69208;SHT31;70114;47.690;8.898;2023-07-20T07:40:38;23.58;44.47
69208;SHT31;70114;47.690;8.898;2023-07-20T07:43:03;23.66;44.65
69208;SHT31;70114;47.690;8.898;2023-07-20T07:45:29;23.67;44.48
69208;SHT31;70114;47.690;8.898;2023-07-20T07:47:54;23.87;44.11
69208;SHT31;70114;47.690;8.898;2023-07-20T07:50:20;24.07;44.70
69208;SHT31;70114;47.690;8.898;2023-07-20T07:52:45;24.00;43.70
69208;SHT31;70114;47.690;8.898;2023-07-20T07:55:10;24.11;44.07
69208;SHT31;70114;47.690;8.898;2023-07-20T07:57:36;24.39;43.53
69208;SHT31;70114;47.690;8.898;2023-07-20T08:00:01;24.49;43.36
69208;SHT31;70114;47.690;8.898;2023-07-20T08:02:28;24.51;42.90
69208;SHT31;70114;47.690;8.898;2023-07-20T08:04:53;24.29;43.78
69208;SHT31;70114;47.690;8.898;2023-07-20T08:07:19;24.32;42.61
69208;SHT31;70114;47.690;8.898;2023-07-20T08:09:44;24.08;46.41
69208;SHT31;70114;47.690;8.898;2023-07-20T08:12:09;24.39;44.16
69208;SHT31;70114;47.690;8.898;2023-07-20T08:14:35;24.28;44.93
69208;SHT31;70114;47.690;8.898;2023-07-20T08:17:00;24.36;44.76
69208;SHT31;70114;47.690;8.898;2023-07-20T08:19:26;24.32;44.89
69208;SHT31;70114;47.690;8.898;2023-07-20T08:21:51;24.13;45.46
69208;SHT31;70114;47.690;8.898;2023-07-20T08:24:16;24.15;45.53
69208;SHT31;70114;47.690;8.898;2023-07-20T08:26:42;24.28;48.05
69208;SHT31;70114;47.690;8.898;2023-07-20T08:29:07;24.42;47.50
69208;SHT31;70114;47.690;8.898;2023-07-20T08:31:33;24.34;45.91
69208;SHT31;70114;47.690;8.898;2023-07-20T08:33:58;24.45;45.05
69208;SHT31;70114;47.690;8.898;2023-07-20T08:36:23;24.28;45.42
69208;SHT31;70114;47.690;8.898;2023-07-20T08:38:49;24.15;46.65
69208;SHT31;70114;47.690;8.898;2023-07-20T08:41:15;23.87;46.01
69208;SHT31;70114;47.690;8.898;2023-07-20T08:43:42;24.24;45.63
69208;SHT31;70114;47.690;8.898;2023-07-20T08:46:11;24.47;45.16
69208;SHT31;70114;47.690;8.898;2023-07-20T08:48:38;24.58;46.43
69208;SHT31;70114;47.690;8.898;2023-07-20T08:51:05;24.49;45.70
69208;SHT31;70114;47.690;8.898;2023-07-20T08:53:32;24.28;45.33
69208;SHT31;70114;47.690;8.898;2023-07-20T08:55:59;24.32;45.29
69208;SHT31;70114;47.690;8.898;2023-07-20T08:58:26;24.42;45.07
69208;SHT31;70114;47.690;8.898;2023-07-20T09:00:54;24.42;46.20
69208;SHT31;70114;47.690;8.898;2023-07-20T09:03:19;24.39;45.92
69208;SHT31;70114;47.690;8.898;2023-07-20T09:05:45;24.55;46.43
69208;SHT31;70114;47.690;8.898;2023-07-20T09:08:10;24.68;45.08
69208;SHT31;70114;47.690;8.898;2023-07-20T09:10:36;24.52;44.65
69208;SHT31;70114;47.690;8.898;2023-07-20T09:13:01;24.35;44.53
69208;SHT31;70114;47.690;8.898;2023-07-20T09:15:28;24.66;44.97
69208;SHT31;70114;47.690;8.898;2023-07-20T09:17:54;24.80;44.85
69208;SHT31;70114;47.690;8.898;2023-07-20T09:20:20;24.38;45.11
69208;SHT31;70114;47.690;8.898;2023-07-20T09:22:45;24.32;45.53
69208;SHT31;70114;47.690;8.898;2023-07-20T09:25:20;24.52;46.20
69208;SHT31;70114;47.690;8.898;2023-07-20T09:27:47;24.59;46.47
69208;SHT31;70114;47.690;8.898;2023-07-20T09:30:16;24.51;44.56
69208;SHT31;70114;47.690;8.898;2023-07-20T09:32:47;24.47;43.64
69208;SHT31;70114;47.690;8.898;2023-07-20T09:35:17;24.77;43.82
69208;SHT31;70114;47.690;8.898;2023-07-20T09:40:15;24.72;41.78
69208;SHT31;70114;47.690;8.898;2023-07-20T09:42:42;24.79;44.64
69208;SHT31;70114;47.690;8.898;2023-07-20T09:45:08;24.76;42.35
69208;SHT31;70114;47.690;8.898;2023-07-20T09:47:36;25.02;42.34
69208;SHT31;70114;47.690;8.898;2023-07-20T09:50:02;25.19;41.79
69208;SHT31;70114;47.690;8.898;2023-07-20T09:52:29;25.09;42.32
69208;SHT31;70114;47.690;8.898;2023-07-20T09:54:55;24.83;42.70
69208;SHT31;70114;47.690;8.898;2023-07-20T09:57:21;24.86;42.92
69208;SHT31;70114;47.690;8.898;2023-07-20T09:59:46;25.04;43.28
69208;SHT31;70114;47.690;8.898;2023-07-20T10:02:20;25.30;42.48
69208;SHT31;70114;47.690;8.898;2023-07-20T10:04:49;25.58;42.97
69208;SHT31;70114;47.690;8.898;2023-07-20T10:07:16;25.38;41.75
69208;SHT31;70114;47.690;8.898;2023-07-20T10:09:46;25.49;42.12
69208;SHT31;70114;47.690;8.898;2023-07-20T10:12:15;25.47;42.46
69208;SHT31;70114;47.690;8.898;2023-07-20T10:14:42;25.64;41.50
69208;SHT31;70114;47.690;8.898;2023-07-20T10:17:11;25.40;42.36
69208;SHT31;70114;47.690;8.898;2023-07-20T10:19:47;25.58;42.08
69208;SHT31;70114;47.690;8.898;2023-07-20T10:22:19;25.23;41.90
69208;SHT31;70114;47.690;8.898;2023-07-20T10:24:48;25.41;41.89
69208;SHT31;70114;47.690;8.898;2023-07-20T10:27:14;25.69;42.53
69208;SHT31;70114;47.690;8.898;2023-07-20T10:29:40;25.84;42.45
69208;SHT31;70114;47.690;8.898;2023-07-20T10:32:07;25.90;42.30
69208;SHT31;70114;47.690;8.898;2023-07-20T10:34:33;25.71;42.23
69208;SHT31;70114;47.690;8.898;2023-07-20T10:36:59;25.84;41.52
69208;SHT31;70114;47.690;8.898;2023-07-20T10:39:25;25.99;41.87
69208;SHT31;70114;47.690;8.898;2023-07-20T10:42:09;25.61;41.97
69208;SHT31;70114;47.690;8.898;2023-07-20T10:44:39;25.76;42.62
69208;SHT31;70114;47.690;8.898;2023-07-20T10:47:12;25.62;42.41
69208;SHT31;70114;47.690;8.898;2023-07-20T10:50:00;25.37;42.00
69208;SHT31;70114;47.690;8.898;2023-07-20T10:52:26;25.81;42.41
69208;SHT31;70114;47.690;8.898;2023-07-20T10:55:16;25.89;43.16
69208;SHT31;70114;47.690;8.898;2023-07-20T10:57:42;26.00;41.58
69208;SHT31;70114;47.690;8.898;2023-07-20T11:00:12;26.16;41.63
69208;SHT31;70114;47.690;8.898;2023-07-20T11:02:48;26.07;42.31
69208;SHT31;70114;47.690;8.898;2023-07-20T11:05:50;26.34;41.40
69208;SHT31;70114;47.690;8.898;2023-07-20T11:08:39;26.17;41.08
69208;SHT31;70114;47.690;8.898;2023-07-20T11:11:26;26.51;39.90
69208;SHT31;70114;47.690;8.898;2023-07-20T11:16:44;26.27;40.97
69208;SHT31;70114;47.690;8.898;2023-07-20T11:19:25;26.17;41.21
69208;SHT31;70114;47.690;8.898;2023-07-20T11:21:55;26.02;41.49
69208;SHT31;70114;47.690;8.898;2023-07-20T11:24:21;25.92;41.30
69208;SHT31;70114;47.690;8.898;2023-07-20T11:26:49;26.23;39.98
69208;SHT31;70114;47.690;8.898;2023-07-20T11:29:16;26.33;41.04
69208;SHT31;70114;47.690;8.898;2023-07-20T11:31:42;26.61;40.11
69208;SHT31;70114;47.690;8.898;2023-07-20T11:34:14;26.51;39.29
69208;SHT31;70114;47.690;8.898;2023-07-20T11:36:48;26.44;39.95
69208;SHT31;70114;47.690;8.898;2023-07-20T11:39:14;26.54;40.09
69208;SHT31;70114;47.690;8.898;2023-07-20T11:41:48;26.50;38.99
69208;SHT31;70114;47.690;8.898;2023-07-20T11:44:16;26.85;40.25
69208;SHT31;70114;47.690;8.898;2023-07-20T11:46:42;26.60;39.69
69208;SHT31;70114;47.690;8.898;2023-07-20T11:49:08;26.81;39.50
69208;SHT31;70114;47.690;8.898;2023-07-20T11:51:34;26.98;38.78
69208;SHT31;70114;47.690;8.898;2023-07-20T11:54:01;26.94;37.64
69208;SHT31;70114;47.690;8.898;2023-07-20T11:56:27;27.35;38.73
69208;SHT31;70114;47.690;8.898;2023-07-20T11:58:56;26.99;37.93
69208;SHT31;70114;47.690;8.898;2023-07-20T12:01:25;27.12;37.85
69208;SHT31;70114;47.690;8.898;2023-07-20T12:03:54;27.02;37.68
69208;SHT31;70114;47.690;8.898;2023-07-20T12:06:23;27.22;38.20
69208;SHT31;70114;47.690;8.898;2023-07-20T12:08:49;27.28;38.06
69208;SHT31;70114;47.690;8.898;2023-07-20T12:11:33;27.38;36.81
69208;SHT31;70114;47.690;8.898;2023-07-20T12:13:59;27.47;36.37
69208;SHT31;70114;47.690;8.898;2023-07-20T12:16:27;27.61;38.10
69208;SHT31;70114;47.690;8.898;2023-07-20T12:18:59;27.97;37.02
69208;SHT31;70114;47.690;8.898;2023-07-20T12:21:25;27.45;36.07
69208;SHT31;70114;47.690;8.898;2023-07-20T12:23:50;27.84;35.89
69208;SHT31;70114;47.690;8.898;2023-07-20T12:26:15;28.05;36.25
69208;SHT31;70114;47.690;8.898;2023-07-20T12:28:41;27.94;35.98
69208;SHT31;70114;47.690;8.898;2023-07-20T12:31:08;28.05;37.44
69208;SHT31;70114;47.690;8.898;2023-07-20T12:33:33;28.14;36.71
69208;SHT31;70114;47.690;8.898;2023-07-20T12:35:59;28.55;38.10
69208;SHT31;70114;47.690;8.898;2023-07-20T12:38:26;28.51;35.36
69208;SHT31;70114;47.690;8.898;2023-07-20T12:40:53;28.81;36.17
69208;SHT31;70114;47.690;8.898;2023-07-20T12:43:20;28.70;35.01
69208;SHT31;70114;47.690;8.898;2023-07-20T12:45:45;29.06;35.41
69208;SHT31;70114;47.690;8.898;2023-07-20T12:48:11;29.08;34.47
69208;SHT31;70114;47.690;8.898;2023-07-20T12:50:36;29.19;35.50
69208;SHT31;70114;47.690;8.898;2023-07-20T12:53:01;29.11;34.83
69208;SHT31;70114;47.690;8.898;2023-07-20T12:55:29;29.45;34.90
69208;SHT31;70114;47.690;8.898;2023-07-20T12:57:54;29.34;34.55
69208;SHT31;70114;47.690;8.898;2023-07-20T13:00:20;29.32;34.34
69208;SHT31;70114;47.690;8.898;2023-07-20T13:02:47;29.08;33.42
69208;SHT31;70114;47.690;8.898;2023-07-20T13:05:12;29.14;33.89
69208;SHT31;70114;47.690;8.898;2023-07-20T13:07:39;29.37;34.27
69208;SHT31;70114;47.690;8.898;2023-07-20T13:10:05;29.42;33.50
69208;SHT31;70114;47.690;8.898;2023-07-20T13:12:32;29.38;32.09
69208;SHT31;70114;47.690;8.898;2023-07-20T13:14:58;29.61;32.37
69208;SHT31;70114;47.690;8.898;2023-07-20T13:17:28;29.70;32.30
69208;SHT31;70114;47.690;8.898;2023-07-20T13:19:54;29.56;33.53
69208;SHT31;70114;47.690;8.898;2023-07-20T13:22:20;29.31;32.73
69208;SHT31;70114;47.690;8.898;2023-07-20T13:24:46;29.34;34.18
69208;SHT31;70114;47.690;8.898;2023-07-20T13:27:14;29.44;33.30
69208;SHT31;70114;47.690;8.898;2023-07-20T13:29:40;29.22;33.43
69208;SHT31;70114;47.690;8.898;2023-07-20T13:32:07;29.31;33.05
69208;SHT31;70114;47.690;8.898;2023-07-20T13:34:32;29.32;33.75
69208;SHT31;70114;47.690;8.898;2023-07-20T13:36:58;29.15;33.12
69208;SHT31;70114;47.690;8.898;2023-07-20T13:39:23;29.47;33.75
69208;SHT31;70114;47.690;8.898;2023-07-20T13:41:51;29.87;31.86
69208;SHT31;70114;47.690;8.898;2023-07-20T13:44:16;30.31;32.44
69208;SHT31;70114;47.690;8.898;2023-07-20T13:46:42;30.33;32.31
69208;SHT31;70114;47.690;8.898;2023-07-20T13:49:07;30.13;31.28
69208;SHT31;70114;47.690;8.898;2023-07-20T13:51:32;30.25;31.51
69208;SHT31;70114;47.690;8.898;2023-07-20T13:53:58;29.97;32.97
69208;SHT31;70114;47.690;8.898;2023-07-20T13:56:24;30.23;30.56
69208;SHT31;70114;47.690;8.898;2023-07-20T13:58:50;30.92;30.25
69208;SHT31;70114;47.690;8.898;2023-07-20T14:01:16;31.19;29.30
69208;SHT31;70114;47.690;8.898;2023-07-20T14:03:43;31.30;30.88
69208;SHT31;70114;47.690;8.898;2023-07-20T14:06:08;31.43;30.58
69208;SHT31;70114;47.690;8.898;2023-07-20T14:08:33;31.41;29.66
69208;SHT31;70114;47.690;8.898;2023-07-20T14:10:59;31.09;29.40
69208;SHT31;70114;47.690;8.898;2023-07-20T14:13:24;31.08;30.85
69208;SHT31;70114;47.690;8.898;2023-07-20T14:15:50;31.29;29.73
69208;SHT31;70114;47.690;8.898;2023-07-20T14:18:16;31.51;29.62
69208;SHT31;70114;47.690;8.898;2023-07-20T14:20:41;31.67;29.01
69208;SHT31;70114;47.690;8.898;2023-07-20T14:23:07;31.89;28.52
69208;SHT31;70114;47.690;8.898;2023-07-20T14:25:32;31.64;29.31
69208;SHT31;70114;47.690;8.898;2023-07-20T14:27:59;31.43;30.78
69208;SHT31;70114;47.690;8.898;2023-07-20T14:30:25;31.95;27.88
69208;SHT31;70114;47.690;8.898;2023-07-20T14:32:50;32.15;27.84
69208;SHT31;70114;47.690;8.898;2023-07-20T14:35:16;32.36;27.22
69208;SHT31;70114;47.690;8.898;2023-07-20T14:37:41;32.05;27.96
69208;SHT31;70114;47.690;8.898;2023-07-20T14:40:07;32.06;27.78
69208;SHT31;70114;47.690;8.898;2023-07-20T14:42:33;32.19;26.97
69208;SHT31;70114;47.690;8.898;2023-07-20T14:44:58;32.36;27.11
69208;SHT31;70114;47.690;8.898;2023-07-20T14:47:24;32.36;26.99
69208;SHT31;70114;47.690;8.898;2023-07-20T14:49:49;32.71;26.72
69208;SHT31;70114;47.690;8.898;2023-07-20T14:52:14;32.25;27.96
69208;SHT31;70114;47.690;8.898;2023-07-20T14:54:40;32.49;28.32
69208;SHT31;70114;47.690;8.898;2023-07-20T14:57:06;32.56;27.18
69208;SHT31;70114;47.690;8.898;2023-07-20T14:59:38;32.77;27.46
69208;SHT31;70114;47.690;8.898;2023-07-20T15:02:04;33.07;26.23
69208;SHT31;70114;47.690;8.898;2023-07-20T15:04:29;32.96;27.33
69208;SHT31;70114;47.690;8.898;2023-07-20T15:06:55;33.56;26.70
69208;SHT31;70114;47.690;8.898;2023-07-20T15:09:21;33.08;26.95
69208;SHT31;70114;47.690;8.898;2023-07-20T15:11:47;33.48;26.82
69208;SHT31;70114;47.690;8.898;2023-07-20T15:14:12;33.11;26.64
69208;SHT31;70114;47.690;8.898;2023-07-20T15:16:38;32.86;28.14
69208;SHT31;70114;47.690;8.898;2023-07-20T15:19:03;33.44;27.88
69208;SHT31;70114;47.690;8.898;2023-07-20T15:21:29;33.36;27.54
69208;SHT31;70114;47.690;8.898;2023-07-20T15:23:57;33.29;27.69
69208;SHT31;70114;47.690;8.898;2023-07-20T15:26:23;33.28;26.61
69208;SHT31;70114;47.690;8.898;2023-07-20T15:28:48;33.35;26.53
69208;SHT31;70114;47.690;8.898;2023-07-20T15:31:14;33.17;27.62
69208;SHT31;70114;47.690;8.898;2023-07-20T15:33:39;33.11;27.68
69208;SHT31;70114;47.690;8.898;2023-07-20T15:36:04;33.12;27.54
69208;SHT31;70114;47.690;8.898;2023-07-20T15:38:31;33.29;27.53
69208;SHT31;70114;47.690;8.898;2023-07-20T15:40:57;32.96;27.29